Keyport, Washington
Current Conditions -  °F | °C
As of 12:15 PM on Thursday 23 Oct 2014 (Local Time) from KPWT Reporting Station
Broken Clouds Broken Clouds  
Wind Chill: 52°   Ceiling: 3600
Heat Index: 52°   Visibility: 10mi
Dew Point: 50°   Wind: 14mph
Humidity: 94%   Direction: 180°S
Pressure: 29.83"   Gusts: 18mph
Location:  47.7°N, 122.62°W
Report Text: KPWT 231915Z AUTO 18012G16KT 10SM FEW015 SCT026 BKN036 11/10 A2983 RMK AO1 P0001
Loading
Personal Weather Stations






























Interactive Weather Map
Tropical Storm Tracking
New forecast layout! Learn more

10-Day Weather Forecast

Advertisements
Track Severe Weather on mobile